Time;durP1;ratioP1;P1;durP2;ratioP2;P2;SDS_P1;SDS_P2;PMS_P1;PMS_P2;Temp;Humidity;BMP_temperature;BMP_pressure;BME280_temperature;BME280_humidity;BME280_pressure;Samples;Min_cycle;Max_cycle;Signal;HPM_P1;HPM_P2
2023/10/22 00:00:15;;;;;;;;;;;;;;;19.06;78.29;99488.81;2503006;27;19937;-77
2023/10/22 00:00:25;;;;;;;;;;;;;;;19.08;77.99;99489.50;354610;27;1263;-77
2023/10/22 00:00:35;;;;;;;;;;;;;;;19.10;77.89;99484.91;353238;28;799;-77
2023/10/22 00:00:46;;;;;;;;;;;;;;;19.11;77.91;99481.31;349250;28;1362;-77
2023/10/22 00:00:56;;;;;;;;;;;;;;;19.11;77.85;99484.81;349138;28;1305;-77
2023/10/22 00:01:06;;;;;;;;;;;;;;;19.12;77.88;99488.28;350404;28;1328;-77
2023/10/22 00:01:17;;;;;;;;;;;;;;;19.13;78.27;99480.22;348912;28;1311;-78
2023/10/22 00:01:27;;;;;;;;;;;;;;;19.14;78.29;99481.06;349119;28;863;-77
2023/10/22 00:01:37;;;;;;;;;;;;;;;19.14;78.40;99486.38;349046;28;812;-77
2023/10/22 00:01:47;;;;;;;;;;;;;;;19.16;78.17;99485.28;350452;28;1278;-77
2023/10/22 00:01:58;;;;;;;;;;;;;;;19.15;78.28;99483.59;349584;28;2588;-77
2023/10/22 00:02:08;;;;;;;;;;;;;;;19.15;78.20;99483.59;349923;28;3065;-77
2023/10/22 00:02:18;;;;;;;;;;;;;;;19.15;78.44;99482.75;348864;28;2915;-77
2023/10/22 00:02:28;;;;;;;;;;;;;;;19.16;78.49;99479.97;348565;28;3245;-77
2023/10/22 00:02:39;;;;;;;;;;;;;;;19.17;78.47;99480.81;348481;28;3160;-78
2023/10/22 00:02:49;;;;;;;;;;;;;;;19.19;78.44;99478.91;348931;28;1338;-78
2023/10/22 00:03:00;;;;;;;;;;;;;;;19.17;77.85;99475.53;347528;28;821;-77
2023/10/22 00:03:10;;;;;;;;;;;;;;;19.11;78.03;99476.84;347689;28;804;-78
2023/10/22 00:03:20;;;;;;;;;;;;;;;19.08;78.11;99481.53;347612;28;1231;-78
2023/10/22 00:03:30;;;;;;;;;;;;;;;19.07;78.17;99474.53;347766;28;876;-78
2023/10/22 00:03:41;;;;;;;;;;;;;;;19.03;78.48;99475.78;347500;28;1309;-78
2023/10/22 00:03:51;;;;;;;;;;;;;;;19.00;78.71;99473.38;347726;28;1242;-78
2023/10/22 00:04:01;;;;;;;;;;;;;;;18.97;78.70;99473.59;348847;28;1251;-78
2023/10/22 00:04:14;;;;;;;;;;;;;;;18.93;78.91;99478.28;347585;28;1366;-77
2023/10/22 00:04:24;;;;;;;;;;;;;;;18.91;78.83;99469.63;347526;28;1186;-77
2023/10/22 00:04:34;;;;;;;;;;;;;;;18.89;78.96;99472.38;349043;28;1005;-77
2023/10/22 00:04:44;;;;;;;;;;;;;;;18.90;79.01;99474.06;350389;28;756;-77
2023/10/22 00:04:55;;;;;;;;;;;;;;;18.91;79.04;99474.91;348802;28;1463;-77
2023/10/22 00:05:05;;;;;;;;;;;;;;;18.91;79.22;99472.25;348902;28;1231;-77
2023/10/22 00:05:15;;;;;;;;;;;;;;;18.91;79.16;99475.75;347626;28;1281;-78
2023/10/22 00:05:26;;;;;;;;;;;;;;;18.92;79.04;99471.31;347633;28;1105;-78
2023/10/22 00:05:36;;;;;;;;;;;;;;;18.93;78.89;99473.00;347526;28;1190;-78
2023/10/22 00:05:46;;;;;;;;;;;;;;;18.93;79.17;99473.84;346211;28;1306;-78
2023/10/22 00:05:56;;;;;;;;;;;;;;;18.93;79.10;99476.50;345995;28;1248;-78
2023/10/22 00:06:06;;;;;;;;;;;;;;;18.94;78.84;99470.22;345373;28;1280;-78
2023/10/22 00:06:17;;;;;;;;;;;;;;;18.94;78.74;99479.97;343559;28;1350;-78
2023/10/22 00:06:27;;;;;;;;;;;;;;;18.93;79.23;99481.78;345754;28;1193;-78
2023/10/22 00:06:37;;;;;;;;;;;;;;;18.91;79.16;99473.09;344509;28;1187;-78
2023/10/22 00:06:48;;;;;;;;;;;;;;;18.93;79.41;99479.13;343521;28;1236;-78
2023/10/22 00:06:58;;;;;;;;;;;;;;;18.93;79.13;99479.13;341978;28;1334;-78
2023/10/22 00:07:09;;;;;;;;;;;;;;;18.95;79.08;99476.38;343223;28;1330;-78
2023/10/22 00:07:22;;;;;;;;;;;;;;;18.97;79.19;99487.72;344899;28;908;-78
2023/10/22 00:07:33;;;;;;;;;;;;;;;18.99;79.00;99476.97;344877;28;868;-78
2023/10/22 00:07:43;;;;;;;;;;;;;;;19.01;78.69;99477.72;345014;28;1108;-78
2023/10/22 00:07:53;;;;;;;;;;;;;;;19.03;78.87;99481.09;346924;28;1190;-78
2023/10/22 00:08:04;;;;;;;;;;;;;;;19.00;78.94;99483.97;344804;28;1339;-78
2023/10/22 00:08:14;;;;;;;;;;;;;;;18.94;79.01;99478.19;336896;29;1631;-78
2023/10/22 00:08:24;;;;;;;;;;;;;;;18.92;79.16;99488.06;339272;28;1490;-78
2023/10/22 00:08:34;;;;;;;;;;;;;;;18.93;79.11;99489.75;339342;29;1459;-78
2023/10/22 00:08:44;;;;;;;;;;;;;;;18.94;79.05;99479.97;339525;29;1196;-78
2023/10/22 00:08:55;;;;;;;;;;;;;;;18.93;79.23;99478.28;337471;29;1648;-78
2023/10/22 00:09:05;;;;;;;;;;;;;;;18.93;79.11;99486.25;337077;29;1926;-78
2023/10/22 00:09:15;;;;;;;;;;;;;;;18.93;78.95;99488.91;338153;29;1147;-78
2023/10/22 00:09:25;;;;;;;;;;;;;;;18.93;79.10;99481.78;339153;29;1186;-78
2023/10/22 00:09:36;;;;;;;;;;;;;;;18.93;79.24;99481.78;340833;29;1230;-78
2023/10/22 00:09:46;;;;;;;;;;;;;;;18.93;79.27;99489.75;339523;29;1209;-78
2023/10/22 00:09:56;;;;;;;;;;;;;;;18.94;79.17;99477.34;337784;29;1507;-78
2023/10/22 00:10:07;;;;;;;;;;;;;;;18.93;79.08;99487.09;338087;29;2082;-78
2023/10/22 00:10:17;;;;;;;;;;;;;;;18.94;79.04;99483.47;338279;29;770;-78
2023/10/22 00:10:27;;;;;;;;;;;;;;;18.96;79.30;99477.22;334432;29;1777;-78
2023/10/22 00:10:38;;;;;;;;;;;;;;;18.98;78.99;99480.59;333886;29;1968;-78
2023/10/22 00:10:48;;;;;;;;;;;;;;;18.99;79.03;99484.94;335670;29;869;-78
2023/10/22 00:10:58;;;;;;;;;;;;;;;19.00;78.92;99479.50;340164;29;1896;-78
2023/10/22 00:11:08;;;;;;;;;;;;;;;19.02;78.79;99480.25;336064;29;2614;-78
2023/10/22 00:11:19;;;;;;;;;;;;;;;19.02;78.71;99482.88;331934;29;5933;-77
2023/10/22 00:11:29;;;;;;;;;;;;;;;19.04;78.86;99475.66;327759;30;3455;-77
2023/10/22 00:11:39;;;;;;;;;;;;;;;19.06;78.81;99478.19;329596;29;1863;-77
2023/10/22 00:11:49;;;;;;;;;;;;;;;19.05;78.61;99477.34;331552;29;3702;-78
2023/10/22 00:12:00;;;;;;;;;;;;;;;19.08;78.64;99484.19;330527;29;998;-78
2023/10/22 00:12:11;;;;;;;;;;;;;;;19.08;79.04;99485.03;327473;29;2218;-77
2023/10/22 00:12:22;;;;;;;;;;;;;;;19.09;79.13;99483.22;328805;29;3071;-77
2023/10/22 00:12:32;;;;;;;;;;;;;;;19.09;79.28;99478.78;332558;29;909;-77
2023/10/22 00:12:42;;;;;;;;;;;;;;;19.09;79.11;99486.72;330127;29;2205;-78
2023/10/22 00:12:53;;;;;;;;;;;;;;;19.10;79.26;99490.22;329429;29;2529;-78
2023/10/22 00:13:03;;;;;;;;;;;;;;;19.09;79.20;99483.22;326003;30;2285;-78
2023/10/22 00:13:13;;;;;;;;;;;;;;;19.10;79.16;99484.91;321762;30;2682;-78
2023/10/22 00:13:23;;;;;;;;;;;;;;;19.10;79.23;99488.41;322992;30;2597;-77
2023/10/22 00:13:33;;;;;;;;;;;;;;;19.10;79.06;99490.22;323353;30;1243;-77
2023/10/22 00:13:44;;;;;;;;;;;;;;;19.10;79.28;99484.91;326705;30;1922;-77
2023/10/22 00:13:54;;;;;;;;;;;;;;;19.11;79.02;99489.25;323544;30;1314;-78
2023/10/22 00:14:04;;;;;;;;;;;;;;;19.12;78.92;99488.28;321987;30;2828;-78
2023/10/22 00:14:16;;;;;;;;;;;;;;;19.12;78.91;99493.59;323371;30;1501;-78
2023/10/22 00:14:26;;;;;;;;;;;;;;;19.13;79.12;99496.13;323180;30;2546;-78
2023/10/22 00:14:37;;;;;;;;;;;;;;;19.12;79.16;99489.16;321361;30;2950;-78
2023/10/22 00:14:47;;;;;;;;;;;;;;;19.11;79.22;99498.06;317266;31;1264;-78
2023/10/22 00:14:57;;;;;;;;;;;;;;;19.11;78.87;99492.75;315594;31;3076;-78
2023/10/22 00:15:08;;;;;;;;;;;;;;;19.12;79.09;99498.91;315935;30;3326;-77
2023/10/22 00:15:20;;;;;;;;;;;;;;;19.12;79.26;99504.22;320055;30;782;-78
2023/10/22 00:15:30;;;;;;;;;;;;;;;19.13;78.88;99503.25;319780;30;1360;-78
2023/10/22 00:15:40;;;;;;;;;;;;;;;19.13;79.09;99505.91;315712;31;3283;-78
2023/10/22 00:15:50;;;;;;;;;;;;;;;19.11;78.98;99503.38;315154;31;2341;-77
2023/10/22 00:16:01;;;;;;;;;;;;;;;19.13;79.14;99505.91;315247;31;1220;-77
2023/10/22 00:16:11;;;;;;;;;;;;;;;19.12;79.23;99506.88;315631;31;2270;-78
2023/10/22 00:16:21;;;;;;;;;;;;;;;19.12;79.11;99498.91;313608;31;2590;-78
2023/10/22 00:16:31;;;;;;;;;;;;;;;19.13;79.31;99503.25;316348;31;1235;-78
2023/10/22 00:16:42;;;;;;;;;;;;;;;19.12;79.22;99501.56;316298;31;3177;-78
2023/10/22 00:16:52;;;;;;;;;;;;;;;19.14;79.07;99502.28;314485;31;4280;-78
2023/10/22 00:17:03;;;;;;;;;;;;;;;19.13;79.19;99501.44;314092;31;1441;-78
2023/10/22 00:17:13;;;;;;;;;;;;;;;19.14;79.32;99507.59;312096;31;4117;-78
2023/10/22 00:17:23;;;;;;;;;;;;;;;19.14;79.10;99502.28;311479;31;4739;-78
2023/10/22 00:17:33;;;;;;;;;;;;;;;19.15;79.17;99504.81;310671;31;1483;-78
2023/10/22 00:17:44;;;;;;;;;;;;;;;19.15;79.36;99499.50;312234;31;4399;-78
2023/10/22 00:17:54;;;;;;;;;;;;;;;19.17;79.42;99507.34;310359;31;4555;-78
2023/10/22 00:18:05;;;;;;;;;;;;;;;19.17;79.09;99512.66;310123;31;3252;-78
2023/10/22 00:18:15;;;;;;;;;;;;;;;19.18;79.40;99503.75;309770;31;879;-78
2023/10/22 00:18:25;;;;;;;;;;;;;;;19.17;79.42;99502.06;308481;31;3068;-78
2023/10/22 00:18:36;;;;;;;;;;;;;;;19.18;79.29;99501.09;308039;31;3458;-78
2023/10/22 00:18:46;;;;;;;;;;;;;;;19.18;79.23;99509.91;309699;31;937;-78
2023/10/22 00:18:56;;;;;;;;;;;;;;;19.19;79.16;99502.78;306510;32;4634;-78
2023/10/22 00:19:06;;;;;;;;;;;;;;;19.19;78.83;99505.44;305258;32;6329;-78
2023/10/22 00:19:17;;;;;;;;;;;;;;;19.19;79.04;99505.44;303203;32;1135;-78
2023/10/22 00:19:27;;;;;;;;;;;;;;;19.18;79.24;99509.03;302225;32;5715;-78
2023/10/22 00:19:37;;;;;;;;;;;;;;;19.18;79.35;99506.41;300732;32;6577;-77
2023/10/22 00:19:47;;;;;;;;;;;;;;;19.17;78.95;99502.91;299115;32;1434;-77
2023/10/22 00:19:57;;;;;;;;;;;;;;;19.18;79.17;99503.75;298729;32;6126;-78
2023/10/22 00:20:08;;;;;;;;;;;;;;;19.17;79.44;99504.72;297475;33;6392;-78
2023/10/22 00:20:19;;;;;;;;;;;;;;;19.17;79.28;99504.72;294942;33;1480;-78
2023/10/22 00:20:30;;;;;;;;;;;;;;;19.17;79.18;99502.06;291390;33;3053;-78
2023/10/22 00:20:41;;;;;;;;;;;;;;;19.17;79.37;99502.91;288685;33;5961;-77
2023/10/22 00:20:51;;;;;;;;;;;;;;;19.16;79.32;99500.38;290957;33;5332;-77
2023/10/22 00:21:06;;;;;;;;;;;;;;;19.15;78.93;99494.22;294984;33;6139;-77
2023/10/22 00:21:16;;;;;;;;;;;;;;;19.15;79.10;99488.06;289960;34;1352;-78
2023/10/22 00:21:26;;;;;;;;;;;;;;;19.12;78.76;99490.94;286611;34;8669;-78
2023/10/22 00:21:36;;;;;;;;;;;;;;;19.11;78.97;99489.25;285623;34;7931;-78
2023/10/22 00:21:47;;;;;;;;;;;;;;;19.08;79.19;99487.69;287391;34;1285;-77
2023/10/22 00:21:57;;;;;;;;;;;;;;;19.07;79.15;99485.16;284648;34;9380;-78
2023/10/22 00:22:08;;;;;;;;;;;;;;;19.05;79.21;99481.81;281404;34;8638;-78
2023/10/22 00:22:19;;;;;;;;;;;;;;;19.05;78.98;99481.81;279315;35;1078;-78
2023/10/22 00:22:29;;;;;;;;;;;;;;;19.04;79.05;99486.28;280369;35;9341;-78
2023/10/22 00:22:39;;;;;;;;;;;;;;;19.03;79.17;99481.09;279684;35;6552;-78
2023/10/22 00:24:27;;;;;;;;;;;;;;;18.91;79.98;99467.81;2498123;27;19937;-76
2023/10/22 00:24:37;;;;;;;;;;;;;;;18.90;79.83;99465.28;354504;27;949;-76
2023/10/22 00:24:47;;;;;;;;;;;;;;;18.90;79.99;99474.06;352277;28;1120;-76
2023/10/22 00:24:58;;;;;;;;;;;;;;;18.91;79.95;99474.91;351717;28;1315;-76
2023/10/22 00:25:08;;;;;;;;;;;;;;;18.91;79.85;99470.47;350394;28;1188;-77
2023/10/22 00:25:18;;;;;;;;;;;;;;;18.93;79.75;99476.50;350453;28;820;-77
2023/10/22 00:25:28;;;;;;;;;;;;;;;18.94;79.73;99470.22;348972;28;895;-77
2023/10/22 00:25:39;;;;;;;;;;;;;;;18.96;79.89;99469.25;349430;28;1399;-76
2023/10/22 00:25:49;;;;;;;;;;;;;;;18.97;79.76;99470.94;350309;28;800;-77
2023/10/22 00:25:59;;;;;;;;;;;;;;;18.98;79.71;99477.94;348984;28;587;-77
2023/10/22 00:26:13;;;;;;;;;;;;;;;18.99;79.69;99476.97;348835;28;1310;-76
2023/10/22 00:26:23;;;;;;;;;;;;;;;19.02;79.76;99474.94;350098;28;797;-76
2023/10/22 00:26:33;;;;;;;;;;;;;;;19.02;79.89;99476.75;351521;28;1196;-76
2023/10/22 00:26:43;;;;;;;;;;;;;;;19.03;79.60;99476.63;350276;28;1214;-77
2023/10/22 00:26:54;;;;;;;;;;;;;;;19.03;79.90;99476.63;350121;28;1391;-77
2023/10/22 00:27:04;;;;;;;;;;;;;;;19.05;79.66;99479.16;350288;28;722;-77
2023/10/22 00:27:15;;;;;;;;;;;;;;;19.06;79.57;99483.50;352722;28;1145;-76
2023/10/22 00:27:26;;;;;;;;;;;;;;;19.06;79.67;99473.69;351710;28;1137;-76
2023/10/22 00:27:36;;;;;;;;;;;;;;;19.06;79.60;99483.50;348961;28;1351;-76
2023/10/22 00:27:46;;;;;;;;;;;;;;;19.07;79.73;99480.69;348910;28;825;-76
2023/10/22 00:27:56;;;;;;;;;;;;;;;19.07;79.37;99475.38;347443;28;1336;-77
2023/10/22 00:28:07;;;;;;;;;;;;;;;19.10;79.69;99479.63;347344;28;1062;-77
2023/10/22 00:28:17;;;;;;;;;;;;;;;19.10;79.51;99479.63;347418;28;1596;-77
2023/10/22 00:28:27;;;;;;;;;;;;;;;19.10;79.48;99484.91;346101;28;1374;-76
2023/10/22 00:28:38;;;;;;;;;;;;;;;19.10;79.89;99484.91;348495;28;812;-77
2023/10/22 00:28:48;;;;;;;;;;;;;;;19.10;79.80;99484.91;347779;28;1217;-77
2023/10/22 00:28:58;;;;;;;;;;;;;;;19.11;79.18;99481.31;347520;28;1306;-77
2023/10/22 00:29:11;;;;;;;;;;;;;;;19.10;79.26;99484.91;345997;28;1391;-77
2023/10/22 00:29:22;;;;;;;;;;;;;;;19.11;79.73;99483.97;346271;28;843;-77
2023/10/22 00:29:32;;;;;;;;;;;;;;;19.12;79.48;99488.28;346300;28;907;-76
2023/10/22 00:29:43;;;;;;;;;;;;;;;19.12;79.30;99488.28;344289;28;3018;-76
2023/10/22 00:29:54;;;;;;;;;;;;;;;19.12;79.47;99485.66;342508;28;5204;-77
2023/10/22 00:30:05;;;;;;;;;;;;;;;19.11;79.54;99481.31;343039;28;3332;-77
2023/10/22 00:30:15;;;;;;;;;;;;;;;19.08;79.21;99474.44;342336;28;1327;-77
2023/10/22 00:30:25;;;;;;;;;;;;;;;19.09;79.17;99483.22;343340;28;3403;-77
2023/10/22 00:30:36;;;;;;;;;;;;;;;19.06;79.35;99488.81;343388;28;1005;-76
2023/10/22 00:30:47;;;;;;;;;;;;;;;19.03;79.20;99481.94;340613;29;1401;-76
2023/10/22 00:30:57;;;;;;;;;;;;;;;19.02;79.35;99490.00;339419;29;1341;-77
2023/10/22 00:31:07;;;;;;;;;;;;;;;19.01;79.22;99483.00;342495;28;1207;-77
2023/10/22 00:31:18;;;;;;;;;;;;;;;18.98;79.68;99481.44;343370;28;1206;-77
2023/10/22 00:31:28;;;;;;;;;;;;;;;18.97;79.72;99485.06;343588;28;1006;-76
2023/10/22 00:31:38;;;;;;;;;;;;;;;18.93;79.69;99479.13;339405;29;1482;-76
2023/10/22 00:31:48;;;;;;;;;;;;;;;18.92;79.72;99479.25;340752;29;1227;-76
2023/10/22 00:31:59;;;;;;;;;;;;;;;18.92;80.03;99487.22;340742;29;1608;-76
2023/10/22 00:32:09;;;;;;;;;;;;;;;18.92;79.80;99476.59;341863;28;1306;-76
2023/10/22 00:32:19;;;;;;;;;;;;;;;18.91;80.00;99477.56;340037;29;1407;-77
2023/10/22 00:32:29;;;;;;;;;;;;;;;18.92;79.89;99477.44;337400;29;1214;-76
2023/10/22 00:32:39;;;;;;;;;;;;;;;18.92;79.77;99477.44;338828;29;1376;-76
2023/10/22 00:32:50;;;;;;;;;;;;;;;18.91;80.20;99475.75;336660;29;1414;-76
2023/10/22 00:33:00;;;;;;;;;;;;;;;18.91;80.00;99477.56;336871;29;921;-76
2023/10/22 00:33:10;;;;;;;;;;;;;;;18.90;79.89;99479.38;344249;28;1530;-76
2023/10/22 00:33:20;;;;;;;;;;;;;;;18.91;79.80;99473.09;344342;28;1983;-77
2023/10/22 00:33:31;;;;;;;;;;;;;;;18.92;80.02;99466.84;343568;28;918;-76
2023/10/22 00:33:41;;;;;;;;;;;;;;;18.94;79.72;99475.53;342216;28;1210;-77
2023/10/22 00:33:51;;;;;;;;;;;;;;;18.94;79.77;99472.88;344643;28;1479;-77
2023/10/22 00:34:01;;;;;;;;;;;;;;;18.96;79.81;99472.75;346213;28;840;-77
2023/10/22 00:34:12;;;;;;;;;;;;;;;18.96;79.67;99478.06;343353;28;1219;-77
2023/10/22 00:34:22;;;;;;;;;;;;;;;18.98;79.79;99480.59;343205;28;1514;-77
2023/10/22 00:34:34;;;;;;;;;;;;;;;18.99;79.58;99480.47;338761;29;1728;-77
2023/10/22 00:34:44;;;;;;;;;;;;;;;19.00;79.54;99483.97;336996;29;802;-77
2023/10/22 00:34:54;;;;;;;;;;;;;;;19.00;79.50;99486.63;338622;29;1740;-78
2023/10/22 00:35:04;;;;;;;;;;;;;;;19.00;79.63;99486.63;338353;29;2110;-78
2023/10/22 00:35:16;;;;;;;;;;;;;;;18.98;79.92;99485.91;335891;29;1192;-77
2023/10/22 00:35:26;;;;;;;;;;;;;;;18.98;79.84;99483.25;331874;29;1277;-77
2023/10/22 00:35:36;;;;;;;;;;;;;;;18.98;79.96;99486.75;331822;29;1595;-76
2023/10/22 00:35:53;;;;;;;;;;;;;;;18.97;79.89;99479.75;332842;29;1224;-78
2023/10/22 00:36:04;;;;;;;;;;;;;;;18.97;79.88;99484.22;327957;29;1306;-77
2023/10/22 00:36:14;;;;;;;;;;;;;;;18.94;79.68;99486.13;328121;30;1402;-77
2023/10/22 00:36:24;;;;;;;;;;;;;;;18.96;79.97;99485.16;325559;30;1511;-77
2023/10/22 00:36:34;;;;;;;;;;;;;;;18.94;80.15;99480.84;323684;30;2013;-78
2023/10/22 00:36:45;;;;;;;;;;;;;;;18.96;79.87;99482.53;325444;30;1465;-78
2023/10/22 00:36:55;;;;;;;;;;;;;;;18.96;79.84;99478.06;324868;30;2440;-77
2023/10/22 00:37:05;;;;;;;;;;;;;;;18.97;79.88;99481.56;325574;30;2528;-77
2023/10/22 00:37:15;;;;;;;;;;;;;;;18.93;79.85;99487.09;323242;30;1398;-77
2023/10/22 00:37:26;;;;;;;;;;;;;;;18.91;79.78;99477.56;326997;30;832;-76
2023/10/22 00:37:36;;;;;;;;;;;;;;;18.91;80.07;99489.03;326731;30;2864;-77
2023/10/22 00:37:46;;;;;;;;;;;;;;;18.89;80.00;99483.00;325298;30;1946;-77
2023/10/22 00:37:56;;;;;;;;;;;;;;;18.89;79.95;99485.66;324389;30;1330;-77
2023/10/22 00:38:07;;;;;;;;;;;;;;;18.88;79.76;99485.75;324305;30;1186;-77
2023/10/22 00:38:17;;;;;;;;;;;;;;;18.89;80.21;99483.00;323943;30;1789;-77
2023/10/22 00:38:27;;;;;;;;;;;;;;;18.87;80.07;99484.91;322166;30;762;-77
2023/10/22 00:38:38;;;;;;;;;;;;;;;18.86;80.03;99482.38;319765;30;2302;-77
2023/10/22 00:38:48;;;;;;;;;;;;;;;18.89;79.87;99482.16;319848;30;2866;-77
2023/10/22 00:38:58;;;;;;;;;;;;;;;18.90;80.00;99471.41;320101;30;3073;-77
2023/10/22 00:39:09;;;;;;;;;;;;;;;18.92;79.77;99466.84;318070;30;3273;-77
2023/10/22 00:39:19;;;;;;;;;;;;;;;18.93;79.79;99473.84;317565;30;3607;-77
2023/10/22 00:39:30;;;;;;;;;;;;;;;18.96;79.96;99477.22;316210;31;1210;-77
2023/10/22 00:39:41;;;;;;;;;;;;;;;18.97;79.73;99470.94;314802;31;3498;-77
2023/10/22 00:39:52;;;;;;;;;;;;;;;18.98;79.61;99481.44;316681;31;3340;-77
2023/10/22 00:40:03;;;;;;;;;;;;;;;19.00;79.64;99468.06;316700;31;2400;-76
2023/10/22 00:40:13;;;;;;;;;;;;;;;18.99;79.66;99471.69;315284;31;826;-77
2023/10/22 00:40:24;;;;;;;;;;;;;;;19.01;79.74;99465.28;315177;31;2027;-77
2023/10/22 00:40:34;;;;;;;;;;;;;;;19.02;79.85;99471.44;313726;31;2599;-77
2023/10/22 00:40:44;;;;;;;;;;;;;;;19.03;79.54;99473.13;311893;31;1211;-77
2023/10/22 00:40:54;;;;;;;;;;;;;;;19.03;79.68;99467.81;310909;31;3208;-77
2023/10/22 00:41:05;;;;;;;;;;;;;;;19.04;79.26;99469.50;308506;31;3942;-77
2023/10/22 00:41:15;;;;;;;;;;;;;;;19.04;79.50;99464.19;308692;32;824;-76
2023/10/22 00:41:25;;;;;;;;;;;;;;;19.05;79.38;99466.75;308812;31;4604;-77
2023/10/22 00:41:35;;;;;;;;;;;;;;;19.06;79.44;99467.59;308441;31;4726;-76
2023/10/22 00:41:46;;;;;;;;;;;;;;;19.06;79.50;99470.22;308068;32;4696;-77
2023/10/22 00:41:56;;;;;;;;;;;;;;;19.06;79.55;99465.75;304180;32;1309;-77
2023/10/22 00:42:06;;;;;;;;;;;;;;;19.06;79.79;99468.41;302598;32;4826;-77
2023/10/22 00:42:16;;;;;;;;;;;;;;;19.02;79.85;99471.44;302860;32;3496;-76
2023/10/22 00:42:27;;;;;;;;;;;;;;;18.99;79.60;99461.91;303513;32;1195;-77
2023/10/22 00:42:37;;;;;;;;;;;;;;;19.00;79.64;99468.91;305682;32;2872;-77
2023/10/22 00:42:47;;;;;;;;;;;;;;;18.96;79.75;99469.25;306283;32;4320;-77
2023/10/22 00:42:57;;;;;;;;;;;;;;;18.94;80.07;99470.22;305420;32;797;-78
2023/10/22 00:43:08;;;;;;;;;;;;;;;18.93;80.15;99471.19;306005;31;5146;-77
2023/10/22 00:43:18;;;;;;;;;;;;;;;18.88;79.96;99475.16;304615;32;5506;-77
2023/10/22 00:43:28;;;;;;;;;;;;;;;18.85;80.44;99473.59;301231;32;1155;-77
2023/10/22 00:43:40;;;;;;;;;;;;;;;18.84;80.33;99474.53;304365;32;6207;-77
2023/10/22 00:43:50;;;;;;;;;;;;;;;18.85;80.23;99475.38;304947;32;5861;-79
2023/10/22 00:44:00;;;;;;;;;;;;;;;18.83;80.34;99475.50;306545;32;1560;-78
2023/10/22 00:44:10;;;;;;;;;;;;;;;18.81;80.43;99473.94;303266;32;6557;-77
2023/10/22 00:44:21;;;;;;;;;;;;;;;18.78;80.64;99468.88;299289;32;6569;-77
2023/10/22 00:44:31;;;;;;;;;;;;;;;18.75;80.72;99474.41;295926;32;5151;-76
2023/10/22 00:44:41;;;;;;;;;;;;;;;18.72;80.44;99464.88;298207;33;918;-77
2023/10/22 00:44:51;;;;;;;;;;;;;;;18.72;80.76;99475.47;295567;33;4859;-77
2023/10/22 00:45:02;;;;;;;;;;;;;;;18.71;80.97;99468.50;293575;33;6331;-77
2023/10/22 00:45:12;;;;;;;;;;;;;;;18.72;80.86;99469.34;294221;33;815;-77
2023/10/22 00:45:23;;;;;;;;;;;;;;;18.73;80.87;99471.03;292498;33;7277;-77
2023/10/22 00:45:35;;;;;;;;;;;;;;;18.73;80.90;99469.22;291058;33;8367;-77
2023/10/22 00:45:45;;;;;;;;;;;;;;;18.76;80.63;99473.44;289309;34;3302;-77
2023/10/22 00:45:55;;;;;;;;;;;;;;;18.78;80.81;99466.22;289195;34;8485;-77
2023/10/22 00:46:05;;;;;;;;;;;;;;;18.79;80.93;99463.44;286682;34;7833;-77
2023/10/22 00:47:54;;;;;;;;;;;;;;;18.92;80.58;99466.84;2492588;27;19923;-77
2023/10/22 00:48:05;;;;;;;;;;;;;;;18.93;80.60;99473.00;348723;27;1216;-77
2023/10/22 00:48:16;;;;;;;;;;;;;;;18.94;80.56;99475.53;351873;28;792;-77
2023/10/22 00:48:26;;;;;;;;;;;;;;;18.96;80.32;99471.91;350493;28;863;-77
2023/10/22 00:48:36;;;;;;;;;;;;;;;18.97;80.19;99473.59;349016;28;1323;-77
2023/10/22 00:48:47;;;;;;;;;;;;;;;18.98;80.22;99467.34;347656;28;831;-77
2023/10/22 00:48:57;;;;;;;;;;;;;;;18.99;80.23;99476.97;348890;28;1371;-77
2023/10/22 00:49:10;;;;;;;;;;;;;;;18.99;80.31;99472.53;348151;28;1379;-77
2023/10/22 00:49:20;;;;;;;;;;;;;;;19.01;80.47;99480.34;348826;28;1339;-77
2023/10/22 00:49:30;;;;;;;;;;;;;;;19.02;80.00;99482.88;348748;28;1375;-77
2023/10/22 00:49:40;;;;;;;;;;;;;;;19.02;80.07;99476.75;343316;28;828;-77
2023/10/22 00:49:51;;;;;;;;;;;;;;;19.02;80.00;99482.03;348878;28;1530;-76
2023/10/22 00:50:02;;;;;;;;;;;;;;;19.02;80.25;99476.75;348868;28;1223;-76
2023/10/22 00:50:12;;;;;;;;;;;;;;;19.02;80.08;99476.75;349026;28;899;-76
2023/10/22 00:50:22;;;;;;;;;;;;;;;19.01;79.94;99485.66;348982;28;856;-77
2023/10/22 00:50:33;;;;;;;;;;;;;;;19.01;79.85;99483.00;349009;28;1238;-77
2023/10/22 00:50:43;;;;;;;;;;;;;;;19.02;79.83;99482.03;347052;28;1334;-77
2023/10/22 00:50:53;;;;;;;;;;;;;;;19.02;79.64;99482.88;348935;28;1434;-77
2023/10/22 00:51:04;;;;;;;;;;;;;;;19.03;79.72;99483.75;348915;28;1247;-77
2023/10/22 00:51:14;;;;;;;;;;;;;;;19.04;79.57;99480.13;350470;28;1266;-77
2023/10/22 00:51:24;;;;;;;;;;;;;;;19.03;79.64;99473.13;350536;28;808;-77
2023/10/22 00:51:35;;;;;;;;;;;;;;;19.01;79.36;99480.34;350310;28;1006;-77
2023/10/22 00:51:45;;;;;;;;;;;;;;;19.01;79.40;99486.50;350293;28;955;-77
2023/10/22 00:51:55;;;;;;;;;;;;;;;19.00;79.64;99483.97;350277;28;1369;-77
2023/10/22 00:52:06;;;;;;;;;;;;;;;19.00;79.63;99476.00;350177;28;888;-77
2023/10/22 00:52:16;;;;;;;;;;;;;;;19.00;79.76;99489.28;347466;28;1337;-77
2023/10/22 00:52:26;;;;;;;;;;;;;;;18.98;79.76;99484.09;346459;28;1253;-77
2023/10/22 00:52:36;;;;;;;;;;;;;;;18.98;79.56;99484.09;345814;28;1326;-77
2023/10/22 00:52:46;;;;;;;;;;;;;;;18.98;79.92;99483.25;344899;28;765;-77
2023/10/22 00:52:57;;;;;;;;;;;;;;;18.97;79.70;99481.56;344894;28;891;-77
2023/10/22 00:53:10;;;;;;;;;;;;;;;18.96;79.66;99477.22;346325;28;792;-78
2023/10/22 00:53:21;;;;;;;;;;;;;;;18.93;79.85;99479.13;346322;28;1368;-77
2023/10/22 00:53:31;;;;;;;;;;;;;;;18.93;80.13;99483.59;346156;28;855;-77
2023/10/22 00:53:44;;;;;;;;;;;;;;;18.93;80.00;99479.13;347588;28;1233;-77
2023/10/22 00:53:55;;;;;;;;;;;;;;;18.94;79.88;99490.59;343395;28;1298;-77
2023/10/22 00:54:05;;;;;;;;;;;;;;;18.93;80.02;99483.59;342757;28;1116;-76
2023/10/22 00:54:18;;;;;;;;;;;;;;;18.93;80.08;99484.44;344712;28;1170;-77
2023/10/22 00:54:28;;;;;;;;;;;;;;;18.93;80.00;99480.94;346098;28;1330;-77
2023/10/22 00:54:38;;;;;;;;;;;;;;;18.90;79.85;99483.84;343572;28;1499;-77
2023/10/22 00:54:49;;;;;;;;;;;;;;;18.88;80.07;99477.81;342999;28;2835;-77
2023/10/22 00:54:59;;;;;;;;;;;;;;;18.89;80.22;99476.84;340746;28;3286;-77
2023/10/22 00:55:13;;;;;;;;;;;;;;;18.87;80.03;99471.66;340932;28;5514;-77
2023/10/22 00:55:23;;;;;;;;;;;;;;;18.88;79.93;99476.00;342099;28;1434;-77
2023/10/22 00:55:34;;;;;;;;;;;;;;;18.88;80.12;99469.84;345778;28;3414;-77
2023/10/22 00:55:47;;;;;;;;;;;;;;;18.86;80.21;99472.63;341385;28;1354;-77
2023/10/22 00:55:57;;;;;;;;;;;;;;;18.85;80.11;99472.72;336834;29;1268;-77
2023/10/22 00:56:07;;;;;;;;;;;;;;;18.85;80.13;99470.94;343209;28;1281;-77
2023/10/22 00:56:20;;;;;;;;;;;;;;;18.84;80.30;99463.94;343452;28;1356;-77
2023/10/22 00:56:30;;;;;;;;;;;;;;;18.85;80.20;99468.28;341923;28;1463;-76
2023/10/22 00:56:41;;;;;;;;;;;;;;;18.86;80.26;99467.31;342212;28;1205;-76
2023/10/22 00:56:51;;;;;;;;;;;;;;;18.89;79.97;99471.53;339472;28;2954;-76
2023/10/22 00:57:02;;;;;;;;;;;;;;;18.89;79.93;99472.38;338110;29;1365;-76
2023/10/22 00:57:12;;;;;;;;;;;;;;;18.90;80.05;99473.22;335616;29;1361;-77
2023/10/22 00:57:22;;;;;;;;;;;;;;;18.88;80.17;99469.84;334327;29;1639;-77
2023/10/22 00:57:32;;;;;;;;;;;;;;;18.87;80.33;99466.34;336007;29;1204;-77
2023/10/22 00:57:43;;;;;;;;;;;;;;;18.87;80.45;99474.31;335326;29;1733;-77
2023/10/22 00:57:53;;;;;;;;;;;;;;;18.86;80.16;99469.97;335508;29;1386;-77
2023/10/22 00:58:04;;;;;;;;;;;;;;;18.83;80.43;99475.50;334669;29;1738;-77
2023/10/22 00:58:15;;;;;;;;;;;;;;;18.80;80.48;99478.38;332933;29;1770;-76
2023/10/22 00:58:25;;;;;;;;;;;;;;;18.78;80.74;99477.66;332398;29;1429;-77
2023/10/22 00:58:35;;;;;;;;;;;;;;;18.78;80.55;99474.16;330288;29;2198;-78
2023/10/22 00:58:45;;;;;;;;;;;;;;;18.78;80.92;99484.78;329089;29;2205;-78
2023/10/22 00:58:56;;;;;;;;;;;;;;;18.77;80.94;99483.94;328108;30;1304;-77
2023/10/22 00:59:06;;;;;;;;;;;;;;;18.78;80.92;99480.31;326693;29;1580;-77
2023/10/22 00:59:16;;;;;;;;;;;;;;;18.78;80.77;99474.16;326895;30;1304;-77
2023/10/22 00:59:26;;;;;;;;;;;;;;;18.78;80.79;99475.00;326986;30;1245;-78
2023/10/22 00:59:37;;;;;;;;;;;;;;;18.79;80.77;99479.34;329330;30;1140;-77